createdAt,value
2023-08-23T03:23:19.860Z,100.00
2023-08-23T03:26:22.691Z,100.00
2023-08-23T03:29:25.085Z,100.00
2023-08-23T03:32:27.805Z,100.00
2023-08-23T03:35:30.037Z,100.00
2023-08-23T03:38:32.817Z,100.00
2023-08-23T03:41:35.002Z,100.00
2023-08-23T03:44:37.501Z,100.00
2023-08-23T03:47:39.865Z,100.00
2023-08-23T03:50:42.514Z,100.00
2023-08-23T03:53:44.979Z,100.00
2023-08-23T03:56:47.478Z,100.00
2023-08-23T03:59:49.673Z,100.00
2023-08-23T04:02:52.278Z,100.00
2023-08-23T04:05:54.900Z,100.00
2023-08-23T04:08:57.083Z,100.00
2023-08-23T04:12:01.197Z,100.00
2023-08-23T04:15:04.889Z,100.00
2023-08-23T04:18:08.679Z,100.00
2023-08-23T04:21:10.979Z,100.00
2023-08-23T04:24:13.482Z,100.00
2023-08-23T04:27:15.612Z,100.00
2023-08-23T04:30:18.582Z,100.00
2023-08-23T04:33:20.888Z,100.00
2023-08-23T04:36:23.480Z,100.00
2023-08-23T04:39:25.703Z,100.00
2023-08-23T04:42:32.879Z,100.00
2023-08-23T04:45:39.062Z,100.00
2023-08-23T04:48:41.689Z,100.00
2023-08-23T04:51:43.915Z,100.00
2023-08-23T04:54:46.484Z,100.00
2023-08-23T04:57:49.190Z,100.00
2023-08-23T05:00:51.792Z,100.00
2023-08-23T05:03:53.965Z,100.00
2023-08-23T05:06:57.896Z,100.00
2023-08-23T05:10:00.076Z,100.00
2023-08-23T05:13:04.772Z,100.00
2023-08-23T05:16:07.424Z,100.00
2023-08-23T05:19:10.083Z,100.00
2023-08-23T05:22:13.842Z,100.00
2023-08-23T05:25:16.620Z,100.00
2023-08-23T05:28:19.733Z,100.00
2023-08-23T05:31:23.051Z,100.00
2023-08-23T05:34:25.643Z,100.00
2023-08-23T05:37:28.779Z,100.00
2023-08-23T05:40:31.686Z,100.00
2023-08-23T05:43:34.645Z,100.00
2023-08-23T05:46:36.917Z,100.00
2023-08-23T05:49:40.213Z,100.00
2023-08-23T05:52:42.516Z,100.00
2023-08-23T05:55:51.549Z,95.16
2023-08-23T05:58:53.783Z,94.17
2023-08-23T06:01:56.344Z,92.46
2023-08-23T06:04:59.848Z,92.09
2023-08-23T06:08:03.642Z,92.27
2023-08-23T06:11:06.177Z,91.09
2023-08-23T06:14:23.077Z,90.42
2023-08-23T06:17:29.614Z,88.16
2023-08-23T06:20:31.820Z,85.86
2023-08-23T06:23:34.325Z,85.13
2023-08-23T06:26:36.669Z,84.49
2023-08-23T06:29:42.583Z,85.76
2023-08-23T06:32:48.619Z,84.28
2023-08-23T06:35:51.250Z,80.36
2023-08-23T06:38:54.129Z,76.50
2023-08-23T06:41:56.666Z,78.17
2023-08-23T06:44:58.893Z,75.19
2023-08-23T06:48:01.450Z,80.21
2023-08-23T06:51:04.547Z,72.14
2023-08-23T06:54:10.220Z,71.00
2023-08-23T06:57:12.387Z,76.54
2023-08-23T07:00:15.156Z,70.84
2023-08-23T07:03:17.532Z,71.26
2023-08-23T07:06:20.848Z,67.93
2023-08-23T07:09:23.312Z,69.22
2023-08-23T07:12:25.803Z,68.77
2023-08-23T07:15:28.271Z,69.33
2023-08-23T07:18:31.534Z,65.71
2023-08-23T07:21:33.798Z,71.67
2023-08-23T07:24:36.285Z,65.02
2023-08-23T07:27:38.485Z,66.74
2023-08-23T07:30:50.930Z,70.06
2023-08-23T07:33:53.192Z,69.07
2023-08-23T07:36:55.710Z,65.64
2023-08-23T07:39:57.987Z,67.55
2023-08-23T07:43:00.714Z,66.99
2023-08-23T07:46:04.585Z,65.97
2023-08-23T07:49:07.200Z,65.45
2023-08-23T07:52:09.420Z,65.12
2023-08-23T07:55:11.989Z,65.50
2023-08-23T07:58:14.943Z,65.59
2023-08-23T08:01:17.399Z,66.25
2023-08-23T08:04:20.249Z,68.76
2023-08-23T08:07:44.440Z,66.54
2023-08-23T08:10:45.283Z,66.18
2023-08-23T08:13:47.557Z,67.74
2023-08-23T08:16:50.058Z,64.77
2023-08-23T08:19:52.224Z,64.90
2023-08-23T08:22:54.704Z,63.12
2023-08-23T08:25:57.320Z,61.94
2023-08-23T08:28:59.762Z,64.46
2023-08-23T08:32:02.821Z,61.10
2023-08-23T08:35:05.773Z,61.99
2023-08-23T08:38:07.957Z,61.03
2023-08-23T08:41:11.165Z,62.25
2023-08-23T08:44:14.067Z,59.04
2023-08-23T08:47:16.648Z,60.32
2023-08-23T08:50:19.143Z,59.72
2023-08-23T08:53:23.230Z,60.56
2023-08-23T08:56:27.104Z,59.56
2023-08-23T08:59:30.637Z,58.06
2023-08-23T09:02:33.955Z,57.56
2023-08-23T09:05:37.284Z,57.85
2023-08-23T09:08:39.716Z,56.58
2023-08-23T09:11:42.227Z,57.74
2023-08-23T09:14:52.652Z,55.05
2023-08-23T09:17:56.108Z,57.08
2023-08-23T09:20:58.366Z,58.48
2023-08-23T09:24:01.153Z,56.08
2023-08-23T09:27:03.409Z,55.54
2023-08-23T09:30:07.009Z,54.47
2023-08-23T09:33:12.692Z,55.27
2023-08-23T09:36:26.208Z,54.38
2023-08-23T09:39:28.430Z,52.28
2023-08-23T09:42:32.949Z,49.55
2023-08-23T09:45:35.227Z,52.03
2023-08-23T09:48:38.784Z,50.14
2023-08-23T09:51:41.480Z,48.71
2023-08-23T09:55:14.296Z,45.71
2023-08-23T09:58:18.435Z,44.65
2023-08-23T10:01:25.527Z,39.60
2023-08-23T10:04:37.192Z,37.62
2023-08-23T10:07:43.351Z,36.13
2023-08-23T10:10:51.510Z,35.28
2023-08-23T10:13:57.907Z,33.42
2023-08-23T10:17:03.834Z,32.48
2023-08-23T10:20:11.459Z,33.80
2023-08-23T10:23:17.785Z,33.68
2023-08-23T10:26:22.309Z,32.86
2023-08-23T10:29:28.680Z,34.56
2023-08-23T10:32:36.909Z,30.40
2023-08-23T10:35:41.034Z,30.06
2023-08-23T10:38:43.275Z,30.50
2023-08-23T10:41:45.741Z,31.82
2023-08-23T10:45:01.384Z,32.42
2023-08-23T10:48:04.312Z,29.31
2023-08-23T10:51:08.425Z,26.78
2023-08-23T10:54:14.874Z,23.75
2023-08-23T10:57:18.572Z,20.49
2023-08-23T11:00:21.186Z,20.59
2023-08-23T11:03:23.788Z,21.47
2023-08-23T11:06:27.994Z,25.39
2023-08-23T11:09:30.072Z,22.42
2023-08-23T11:12:32.449Z,21.85
2023-08-23T11:15:35.684Z,22.84
2023-08-23T11:18:38.288Z,22.75
2023-08-23T11:21:41.329Z,22.86
2023-08-23T11:24:43.894Z,27.49
2023-08-23T11:27:46.525Z,29.14
2023-08-23T11:30:49.556Z,30.39
2023-08-23T11:33:51.821Z,34.31
2023-08-23T11:36:54.444Z,35.90
2023-08-23T11:40:06.045Z,37.37
2023-08-23T11:43:20.706Z,40.60
2023-08-23T11:46:25.495Z,39.71
2023-08-23T11:49:28.589Z,42.96
2023-08-23T11:52:31.417Z,46.77
2023-08-23T11:55:37.468Z,48.16
2023-08-23T11:58:39.735Z,48.86
2023-08-23T12:01:46.222Z,49.69
2023-08-23T12:04:49.151Z,49.75
2023-08-23T12:07:51.319Z,49.33
2023-08-23T12:10:53.841Z,48.30
2023-08-23T12:13:56.186Z,46.90
2023-08-23T12:16:59.218Z,44.95
2023-08-23T12:20:01.718Z,45.69
2023-08-23T12:23:04.269Z,46.55
2023-08-23T12:26:07.700Z,45.39
2023-08-23T12:29:11.615Z,43.95
2023-08-23T12:32:13.858Z,44.55
2023-08-23T12:35:16.347Z,44.65
2023-08-23T12:38:18.535Z,45.83
2023-08-23T12:41:21.056Z,46.87
2023-08-23T12:44:23.328Z,45.31
2023-08-23T12:47:26.189Z,45.10
2023-08-23T12:50:28.410Z,43.65
2023-08-23T12:53:30.820Z,45.03
2023-08-23T12:56:34.321Z,45.62
2023-08-23T12:59:36.849Z,46.23
2023-08-23T13:02:39.251Z,46.95
2023-08-23T13:05:41.797Z,47.76
2023-08-23T13:08:44.035Z,48.49
2023-08-23T13:11:46.717Z,48.04
2023-08-23T13:14:49.004Z,49.53
2023-08-23T13:17:56.609Z,49.61
2023-08-23T13:20:58.830Z,48.18
2023-08-23T13:24:01.339Z,50.49
2023-08-23T13:27:03.786Z,49.34
2023-08-23T13:30:07.255Z,49.13
2023-08-23T13:33:09.684Z,48.81
2023-08-23T13:36:12.105Z,50.11
2023-08-23T13:39:14.321Z,48.30
2023-08-23T13:42:16.767Z,51.87
2023-08-23T13:45:19.291Z,49.88
2023-08-23T13:48:21.799Z,52.57
2023-08-23T13:51:24.051Z,50.23
2023-08-23T13:54:26.497Z,51.43
2023-08-23T13:57:30.647Z,52.37
2023-08-23T14:00:33.208Z,51.62
2023-08-23T14:03:35.663Z,51.24
2023-08-23T14:06:37.891Z,50.94
2023-08-23T14:09:40.358Z,51.17
2023-08-23T14:12:42.574Z,52.02
2023-08-23T14:15:45.686Z,53.05
2023-08-23T14:18:47.893Z,51.38
2023-08-23T14:21:50.442Z,49.57
2023-08-23T14:24:52.582Z,52.43
2023-08-23T14:27:55.042Z,51.94
2023-08-23T14:30:57.493Z,51.23
2023-08-23T14:33:59.976Z,48.13
2023-08-23T14:37:02.205Z,46.17
2023-08-23T14:40:05.716Z,46.37
2023-08-23T14:43:07.888Z,42.83
2023-08-23T14:46:10.427Z,42.39
2023-08-23T14:49:15.031Z,44.34
2023-08-23T14:52:18.715Z,43.49
2023-08-23T14:55:21.091Z,45.06
2023-08-23T14:58:23.619Z,45.39
